sensor_id;sensor_type;location;lat;lon;timestamp;temperature;humidity
83500;DHT22;73433;50.908;13.746;2024-03-22T00:01:54;7.90;83.00
83500;DHT22;73433;50.908;13.746;2024-03-22T00:04:21;7.80;82.90
83500;DHT22;73433;50.908;13.746;2024-03-22T00:06:48;7.80;82.90
83500;DHT22;73433;50.908;13.746;2024-03-22T00:09:15;7.80;83.00
83500;DHT22;73433;50.908;13.746;2024-03-22T00:11:42;7.80;83.20
83500;DHT22;73433;50.908;13.746;2024-03-22T00:14:09;7.80;83.20
83500;DHT22;73433;50.908;13.746;2024-03-22T00:16:36;7.80;83.30
83500;DHT22;73433;50.908;13.746;2024-03-22T00:19:02;7.80;83.30
83500;DHT22;73433;50.908;13.746;2024-03-22T00:21:29;7.80;83.30
83500;DHT22;73433;50.908;13.746;2024-03-22T00:23:56;7.80;83.50
83500;DHT22;73433;50.908;13.746;2024-03-22T00:26:23;7.80;83.50
83500;DHT22;73433;50.908;13.746;2024-03-22T00:28:49;7.80;83.60
83500;DHT22;73433;50.908;13.746;2024-03-22T00:31:16;7.70;83.50
83500;DHT22;73433;50.908;13.746;2024-03-22T00:33:42;7.70;84.40
83500;DHT22;73433;50.908;13.746;2024-03-22T00:36:08;7.70;83.60
83500;DHT22;73433;50.908;13.746;2024-03-22T00:38:35;7.70;83.70
83500;DHT22;73433;50.908;13.746;2024-03-22T00:41:01;7.70;83.70
83500;DHT22;73433;50.908;13.746;2024-03-22T00:43:27;7.70;83.70
83500;DHT22;73433;50.908;13.746;2024-03-22T00:45:54;7.70;83.80
83500;DHT22;73433;50.908;13.746;2024-03-22T00:48:20;7.70;83.70
83500;DHT22;73433;50.908;13.746;2024-03-22T00:50:46;7.70;83.60
83500;DHT22;73433;50.908;13.746;2024-03-22T00:53:12;7.80;83.50
83500;DHT22;73433;50.908;13.746;2024-03-22T00:55:38;7.70;83.40
83500;DHT22;73433;50.908;13.746;2024-03-22T00:58:04;7.70;83.40
83500;DHT22;73433;50.908;13.746;2024-03-22T01:00:31;7.70;83.40
83500;DHT22;73433;50.908;13.746;2024-03-22T01:02:57;7.70;83.50
83500;DHT22;73433;50.908;13.746;2024-03-22T01:05:23;7.70;83.40
83500;DHT22;73433;50.908;13.746;2024-03-22T01:07:49;7.80;83.40
83500;DHT22;73433;50.908;13.746;2024-03-22T01:10:15;7.80;83.30
83500;DHT22;73433;50.908;13.746;2024-03-22T01:12:41;7.80;83.30
83500;DHT22;73433;50.908;13.746;2024-03-22T01:15:08;7.80;83.20
83500;DHT22;73433;50.908;13.746;2024-03-22T01:17:34;7.80;83.00
83500;DHT22;73433;50.908;13.746;2024-03-22T01:20:02;7.80;83.20
83500;DHT22;73433;50.908;13.746;2024-03-22T01:22:28;7.80;83.10
83500;DHT22;73433;50.908;13.746;2024-03-22T01:24:54;7.70;83.10
83500;DHT22;73433;50.908;13.746;2024-03-22T01:27:20;7.70;83.10
83500;DHT22;73433;50.908;13.746;2024-03-22T01:29:46;7.80;83.10
83500;DHT22;73433;50.908;13.746;2024-03-22T01:32:13;7.70;83.00
83500;DHT22;73433;50.908;13.746;2024-03-22T01:34:39;7.70;83.00
83500;DHT22;73433;50.908;13.746;2024-03-22T01:37:05;7.70;83.00
83500;DHT22;73433;50.908;13.746;2024-03-22T01:39:32;7.70;83.10
83500;DHT22;73433;50.908;13.746;2024-03-22T01:41:58;7.70;83.20
83500;DHT22;73433;50.908;13.746;2024-03-22T01:44:28;7.60;83.00
83500;DHT22;73433;50.908;13.746;2024-03-22T01:46:54;7.60;83.10
83500;DHT22;73433;50.908;13.746;2024-03-22T01:49:22;7.60;83.30
83500;DHT22;73433;50.908;13.746;2024-03-22T01:51:49;7.60;83.40
83500;DHT22;73433;50.908;13.746;2024-03-22T01:54:16;7.50;83.40
83500;DHT22;73433;50.908;13.746;2024-03-22T01:56:42;7.50;83.60
83500;DHT22;73433;50.908;13.746;2024-03-22T01:59:09;7.60;83.60
83500;DHT22;73433;50.908;13.746;2024-03-22T02:01:36;7.50;83.70
83500;DHT22;73433;50.908;13.746;2024-03-22T02:04:02;7.40;83.80
83500;DHT22;73433;50.908;13.746;2024-03-22T02:06:28;7.40;84.00
83500;DHT22;73433;50.908;13.746;2024-03-22T02:08:55;7.40;84.10
83500;DHT22;73433;50.908;13.746;2024-03-22T02:11:21;7.30;84.20
83500;DHT22;73433;50.908;13.746;2024-03-22T02:13:47;7.30;84.30
83500;DHT22;73433;50.908;13.746;2024-03-22T02:16:13;7.30;84.60
83500;DHT22;73433;50.908;13.746;2024-03-22T02:18:40;7.20;84.60
83500;DHT22;73433;50.908;13.746;2024-03-22T02:21:06;7.30;84.80
83500;DHT22;73433;50.908;13.746;2024-03-22T02:23:35;7.20;84.80
83500;DHT22;73433;50.908;13.746;2024-03-22T02:26:02;7.20;84.90
83500;DHT22;73433;50.908;13.746;2024-03-22T02:28:29;7.20;85.00
83500;DHT22;73433;50.908;13.746;2024-03-22T02:30:56;7.20;85.20
83500;DHT22;73433;50.908;13.746;2024-03-22T02:33:22;7.10;85.30
83500;DHT22;73433;50.908;13.746;2024-03-22T02:35:49;7.10;85.50
83500;DHT22;73433;50.908;13.746;2024-03-22T02:38:16;7.10;85.50
83500;DHT22;73433;50.908;13.746;2024-03-22T02:40:46;7.10;85.60
83500;DHT22;73433;50.908;13.746;2024-03-22T02:43:12;7.10;85.70
83500;DHT22;73433;50.908;13.746;2024-03-22T02:45:39;7.10;85.80
83500;DHT22;73433;50.908;13.746;2024-03-22T02:48:06;7.00;85.90
83500;DHT22;73433;50.908;13.746;2024-03-22T02:50:36;7.00;86.00
83500;DHT22;73433;50.908;13.746;2024-03-22T02:53:03;7.00;85.90
83500;DHT22;73433;50.908;13.746;2024-03-22T02:55:30;7.00;86.10
83500;DHT22;73433;50.908;13.746;2024-03-22T02:57:56;7.00;86.30
83500;DHT22;73433;50.908;13.746;2024-03-22T03:00:23;7.00;86.30
83500;DHT22;73433;50.908;13.746;2024-03-22T03:02:50;6.90;86.50
83500;DHT22;73433;50.908;13.746;2024-03-22T03:05:16;6.90;86.60
83500;DHT22;73433;50.908;13.746;2024-03-22T03:07:42;6.90;86.80
83500;DHT22;73433;50.908;13.746;2024-03-22T03:10:09;6.90;86.70
83500;DHT22;73433;50.908;13.746;2024-03-22T03:12:35;6.80;86.70
83500;DHT22;73433;50.908;13.746;2024-03-22T03:15:01;6.80;86.80
83500;DHT22;73433;50.908;13.746;2024-03-22T03:17:28;6.80;87.00
83500;DHT22;73433;50.908;13.746;2024-03-22T03:19:54;6.80;87.10
83500;DHT22;73433;50.908;13.746;2024-03-22T03:22:20;6.80;87.20
83500;DHT22;73433;50.908;13.746;2024-03-22T03:24:47;6.70;87.40
83500;DHT22;73433;50.908;13.746;2024-03-22T03:27:13;6.70;87.60
83500;DHT22;73433;50.908;13.746;2024-03-22T03:29:39;6.70;87.70
83500;DHT22;73433;50.908;13.746;2024-03-22T03:32:05;6.70;87.70
83500;DHT22;73433;50.908;13.746;2024-03-22T03:34:31;6.60;87.70
83500;DHT22;73433;50.908;13.746;2024-03-22T03:36:57;6.70;87.90
83500;DHT22;73433;50.908;13.746;2024-03-22T03:39:27;6.60;87.90
83500;DHT22;73433;50.908;13.746;2024-03-22T03:41:53;6.60;88.10
83500;DHT22;73433;50.908;13.746;2024-03-22T03:44:19;6.60;88.20
83500;DHT22;73433;50.908;13.746;2024-03-22T03:46:45;6.50;88.30
83500;DHT22;73433;50.908;13.746;2024-03-22T03:49:12;6.60;88.50
83500;DHT22;73433;50.908;13.746;2024-03-22T03:51:38;6.50;88.60
83500;DHT22;73433;50.908;13.746;2024-03-22T03:54:04;6.50;88.50
83500;DHT22;73433;50.908;13.746;2024-03-22T03:56:29;6.50;88.50
83500;DHT22;73433;50.908;13.746;2024-03-22T03:58:55;6.50;88.70
83500;DHT22;73433;50.908;13.746;2024-03-22T04:01:21;6.50;88.70
83500;DHT22;73433;50.908;13.746;2024-03-22T04:03:48;6.50;88.70
83500;DHT22;73433;50.908;13.746;2024-03-22T04:06:15;6.50;89.00
83500;DHT22;73433;50.908;13.746;2024-03-22T04:08:41;6.60;88.60
83500;DHT22;73433;50.908;13.746;2024-03-22T04:11:07;6.60;88.60
83500;DHT22;73433;50.908;13.746;2024-03-22T04:13:33;6.60;88.40
83500;DHT22;73433;50.908;13.746;2024-03-22T04:16:00;6.60;88.30
83500;DHT22;73433;50.908;13.746;2024-03-22T04:18:27;6.70;88.20
83500;DHT22;73433;50.908;13.746;2024-03-22T04:20:54;6.70;87.90
83500;DHT22;73433;50.908;13.746;2024-03-22T04:23:20;6.70;87.60
83500;DHT22;73433;50.908;13.746;2024-03-22T04:25:56;6.80;87.30
83500;DHT22;73433;50.908;13.746;2024-03-22T04:28:25;6.80;87.10
83500;DHT22;73433;50.908;13.746;2024-03-22T04:31:02;6.90;86.90
83500;DHT22;73433;50.908;13.746;2024-03-22T04:33:29;6.90;86.60
83500;DHT22;73433;50.908;13.746;2024-03-22T04:35:56;6.90;86.40
83500;DHT22;73433;50.908;13.746;2024-03-22T04:38:23;6.90;86.30
83500;DHT22;73433;50.908;13.746;2024-03-22T04:40:49;6.90;86.20
83500;DHT22;73433;50.908;13.746;2024-03-22T04:43:16;6.90;85.90
83500;DHT22;73433;50.908;13.746;2024-03-22T04:45:43;7.00;85.90
83500;DHT22;73433;50.908;13.746;2024-03-22T04:48:09;6.90;85.70
83500;DHT22;73433;50.908;13.746;2024-03-22T04:50:36;6.80;85.50
83500;DHT22;73433;50.908;13.746;2024-03-22T04:53:02;6.80;85.60
83500;DHT22;73433;50.908;13.746;2024-03-22T04:55:29;6.80;85.80
83500;DHT22;73433;50.908;13.746;2024-03-22T04:57:55;6.70;85.90
83500;DHT22;73433;50.908;13.746;2024-03-22T05:00:21;6.70;86.10
83500;DHT22;73433;50.908;13.746;2024-03-22T05:02:47;6.70;86.30
83500;DHT22;73433;50.908;13.746;2024-03-22T05:05:13;6.60;86.30
83500;DHT22;73433;50.908;13.746;2024-03-22T05:07:39;6.60;86.40
83500;DHT22;73433;50.908;13.746;2024-03-22T05:10:06;6.50;86.50
83500;DHT22;73433;50.908;13.746;2024-03-22T05:12:32;6.50;86.70
83500;DHT22;73433;50.908;13.746;2024-03-22T05:14:58;6.40;86.80
83500;DHT22;73433;50.908;13.746;2024-03-22T05:17:24;6.40;86.90
83500;DHT22;73433;50.908;13.746;2024-03-22T05:19:50;6.40;87.20
83500;DHT22;73433;50.908;13.746;2024-03-22T05:22:17;6.40;87.20
83500;DHT22;73433;50.908;13.746;2024-03-22T05:24:43;6.40;87.20
83500;DHT22;73433;50.908;13.746;2024-03-22T05:27:09;6.40;87.10
83500;DHT22;73433;50.908;13.746;2024-03-22T05:29:35;6.50;87.10
83500;DHT22;73433;50.908;13.746;2024-03-22T05:32:01;6.60;87.00
83500;DHT22;73433;50.908;13.746;2024-03-22T05:34:29;6.60;86.70
83500;DHT22;73433;50.908;13.746;2024-03-22T05:36:55;6.70;86.60
83500;DHT22;73433;50.908;13.746;2024-03-22T05:39:22;6.80;86.30
83500;DHT22;73433;50.908;13.746;2024-03-22T05:41:48;6.90;86.00
83500;DHT22;73433;50.908;13.746;2024-03-22T05:44:14;6.90;85.70
83500;DHT22;73433;50.908;13.746;2024-03-22T05:46:40;7.00;85.50
83500;DHT22;73433;50.908;13.746;2024-03-22T05:49:06;7.10;85.20
83500;DHT22;73433;50.908;13.746;2024-03-22T05:51:33;7.10;85.30
83500;DHT22;73433;50.908;13.746;2024-03-22T05:53:59;7.20;83.90
83500;DHT22;73433;50.908;13.746;2024-03-22T05:56:25;7.30;83.70
83500;DHT22;73433;50.908;13.746;2024-03-22T05:58:52;7.40;82.60
83500;DHT22;73433;50.908;13.746;2024-03-22T06:01:18;7.40;81.90
83500;DHT22;73433;50.908;13.746;2024-03-22T06:03:44;7.50;81.60
83500;DHT22;73433;50.908;13.746;2024-03-22T06:06:10;7.60;80.40
83500;DHT22;73433;50.908;13.746;2024-03-22T06:08:36;7.70;79.40
83500;DHT22;73433;50.908;13.746;2024-03-22T06:11:07;7.80;79.00
83500;DHT22;73433;50.908;13.746;2024-03-22T06:13:33;7.90;78.20
83500;DHT22;73433;50.908;13.746;2024-03-22T06:16:00;8.00;77.80
83500;DHT22;73433;50.908;13.746;2024-03-22T06:18:26;8.00;77.30
83500;DHT22;73433;50.908;13.746;2024-03-22T06:20:53;8.10;77.00
83500;DHT22;73433;50.908;13.746;2024-03-22T06:23:23;8.10;76.50
83500;DHT22;73433;50.908;13.746;2024-03-22T06:25:55;8.20;76.10
83500;DHT22;73433;50.908;13.746;2024-03-22T06:28:22;8.30;75.90
83500;DHT22;73433;50.908;13.746;2024-03-22T06:30:49;8.40;75.50
83500;DHT22;73433;50.908;13.746;2024-03-22T06:33:15;8.40;75.20
83500;DHT22;73433;50.908;13.746;2024-03-22T06:35:42;8.50;75.20
83500;DHT22;73433;50.908;13.746;2024-03-22T06:38:08;8.60;74.90
83500;DHT22;73433;50.908;13.746;2024-03-22T06:40:34;8.60;74.60
83500;DHT22;73433;50.908;13.746;2024-03-22T06:43:01;8.70;74.70
83500;DHT22;73433;50.908;13.746;2024-03-22T06:45:27;8.80;74.40
83500;DHT22;73433;50.908;13.746;2024-03-22T06:47:53;8.90;74.50
83500;DHT22;73433;50.908;13.746;2024-03-22T06:50:20;8.90;73.90
83500;DHT22;73433;50.908;13.746;2024-03-22T06:52:55;9.00;74.00
83500;DHT22;73433;50.908;13.746;2024-03-22T06:55:22;9.20;73.90
83500;DHT22;73433;50.908;13.746;2024-03-22T06:57:49;9.30;73.50
83500;DHT22;73433;50.908;13.746;2024-03-22T07:00:16;9.40;73.50
83500;DHT22;73433;50.908;13.746;2024-03-22T07:02:43;9.50;73.50
83500;DHT22;73433;50.908;13.746;2024-03-22T07:05:10;9.70;72.70
83500;DHT22;73433;50.908;13.746;2024-03-22T07:07:37;9.80;72.10
83500;DHT22;73433;50.908;13.746;2024-03-22T07:10:04;9.80;71.10
83500;DHT22;73433;50.908;13.746;2024-03-22T07:12:33;9.80;70.70
83500;DHT22;73433;50.908;13.746;2024-03-22T07:15:00;9.80;70.40
83500;DHT22;73433;50.908;13.746;2024-03-22T07:17:27;9.90;71.00
83500;DHT22;73433;50.908;13.746;2024-03-22T07:19:53;9.90;70.70
83500;DHT22;73433;50.908;13.746;2024-03-22T07:22:20;9.90;70.80
83500;DHT22;73433;50.908;13.746;2024-03-22T07:24:47;10.00;70.80
83500;DHT22;73433;50.908;13.746;2024-03-22T07:27:14;10.10;70.90
83500;DHT22;73433;50.908;13.746;2024-03-22T07:29:41;10.20;70.80
83500;DHT22;73433;50.908;13.746;2024-03-22T07:32:07;10.30;70.60
83500;DHT22;73433;50.908;13.746;2024-03-22T07:34:34;10.40;70.00
83500;DHT22;73433;50.908;13.746;2024-03-22T07:37:00;10.50;69.60
83500;DHT22;73433;50.908;13.746;2024-03-22T07:39:26;10.50;69.20
83500;DHT22;73433;50.908;13.746;2024-03-22T07:41:52;10.60;69.10
83500;DHT22;73433;50.908;13.746;2024-03-22T07:44:18;10.70;68.80
83500;DHT22;73433;50.908;13.746;2024-03-22T07:46:45;10.70;68.60
83500;DHT22;73433;50.908;13.746;2024-03-22T07:49:14;10.80;68.10
83500;DHT22;73433;50.908;13.746;2024-03-22T07:51:41;10.80;67.40
83500;DHT22;73433;50.908;13.746;2024-03-22T07:54:07;10.80;67.50
83500;DHT22;73433;50.908;13.746;2024-03-22T07:56:33;10.90;67.20
83500;DHT22;73433;50.908;13.746;2024-03-22T07:58:59;10.90;67.10
83500;DHT22;73433;50.908;13.746;2024-03-22T08:01:26;11.00;67.20
83500;DHT22;73433;50.908;13.746;2024-03-22T08:03:52;11.10;66.70
83500;DHT22;73433;50.908;13.746;2024-03-22T08:06:19;11.30;67.30
83500;DHT22;73433;50.908;13.746;2024-03-22T08:08:45;11.50;66.70
83500;DHT22;73433;50.908;13.746;2024-03-22T08:11:12;11.70;66.00
83500;DHT22;73433;50.908;13.746;2024-03-22T08:13:38;11.90;65.50
83500;DHT22;73433;50.908;13.746;2024-03-22T08:16:04;12.10;64.60
83500;DHT22;73433;50.908;13.746;2024-03-22T08:18:32;12.10;63.70
83500;DHT22;73433;50.908;13.746;2024-03-22T08:21:01;12.20;63.20
83500;DHT22;73433;50.908;13.746;2024-03-22T08:23:28;12.10;63.10
83500;DHT22;73433;50.908;13.746;2024-03-22T08:25:54;12.20;63.30
83500;DHT22;73433;50.908;13.746;2024-03-22T08:28:20;12.30;63.10
83500;DHT22;73433;50.908;13.746;2024-03-22T08:30:46;12.40;62.80
83500;DHT22;73433;50.908;13.746;2024-03-22T08:33:12;12.50;62.70
83500;DHT22;73433;50.908;13.746;2024-03-22T08:35:39;12.50;61.50
83500;DHT22;73433;50.908;13.746;2024-03-22T08:38:05;12.50;61.30
83500;DHT22;73433;50.908;13.746;2024-03-22T08:40:39;12.50;60.90
83500;DHT22;73433;50.908;13.746;2024-03-22T08:43:05;12.40;61.00
83500;DHT22;73433;50.908;13.746;2024-03-22T08:45:34;12.40;60.70
83500;DHT22;73433;50.908;13.746;2024-03-22T08:48:00;12.40;60.20
83500;DHT22;73433;50.908;13.746;2024-03-22T08:50:26;12.30;60.30
83500;DHT22;73433;50.908;13.746;2024-03-22T08:52:53;12.30;60.40
83500;DHT22;73433;50.908;13.746;2024-03-22T08:55:19;12.30;60.10
83500;DHT22;73433;50.908;13.746;2024-03-22T08:57:45;12.20;59.60
83500;DHT22;73433;50.908;13.746;2024-03-22T09:00:11;12.20;60.30
83500;DHT22;73433;50.908;13.746;2024-03-22T09:02:38;12.10;60.30
83500;DHT22;73433;50.908;13.746;2024-03-22T09:05:07;12.10;59.60
83500;DHT22;73433;50.908;13.746;2024-03-22T09:07:34;12.10;60.10
83500;DHT22;73433;50.908;13.746;2024-03-22T09:10:00;12.10;59.50
83500;DHT22;73433;50.908;13.746;2024-03-22T09:12:26;12.20;59.10
83500;DHT22;73433;50.908;13.746;2024-03-22T09:14:52;12.30;58.70
83500;DHT22;73433;50.908;13.746;2024-03-22T09:17:18;12.30;59.20
83500;DHT22;73433;50.908;13.746;2024-03-22T09:19:44;12.40;59.00
83500;DHT22;73433;50.908;13.746;2024-03-22T09:22:11;12.40;58.90
83500;DHT22;73433;50.908;13.746;2024-03-22T09:24:38;12.50;58.70
83500;DHT22;73433;50.908;13.746;2024-03-22T09:27:04;12.50;58.30
83500;DHT22;73433;50.908;13.746;2024-03-22T09:29:35;12.50;57.80
83500;DHT22;73433;50.908;13.746;2024-03-22T09:32:02;12.70;56.80
83500;DHT22;73433;50.908;13.746;2024-03-22T09:34:28;12.80;57.00
83500;DHT22;73433;50.908;13.746;2024-03-22T09:36:56;12.80;56.40
83500;DHT22;73433;50.908;13.746;2024-03-22T09:39:22;12.90;56.10
83500;DHT22;73433;50.908;13.746;2024-03-22T09:41:51;13.00;56.10
83500;DHT22;73433;50.908;13.746;2024-03-22T09:44:18;13.10;56.10
83500;DHT22;73433;50.908;13.746;2024-03-22T09:46:46;13.20;56.10
83500;DHT22;73433;50.908;13.746;2024-03-22T09:49:13;13.30;55.70
83500;DHT22;73433;50.908;13.746;2024-03-22T09:51:39;13.50;54.90
83500;DHT22;73433;50.908;13.746;2024-03-22T09:54:08;13.70;54.20
83500;DHT22;73433;50.908;13.746;2024-03-22T09:56:35;13.90;53.20
83500;DHT22;73433;50.908;13.746;2024-03-22T09:59:04;14.10;53.00
83500;DHT22;73433;50.908;13.746;2024-03-22T10:01:30;14.30;53.40
83500;DHT22;73433;50.908;13.746;2024-03-22T10:03:57;14.70;53.30
83500;DHT22;73433;50.908;13.746;2024-03-22T10:06:23;15.10;52.20
83500;DHT22;73433;50.908;13.746;2024-03-22T10:08:49;15.30;51.90
83500;DHT22;73433;50.908;13.746;2024-03-22T10:11:16;15.40;51.70
83500;DHT22;73433;50.908;13.746;2024-03-22T10:13:42;15.60;51.60
83500;DHT22;73433;50.908;13.746;2024-03-22T10:16:08;15.90;51.10
83500;DHT22;73433;50.908;13.746;2024-03-22T10:18:34;16.10;50.30
83500;DHT22;73433;50.908;13.746;2024-03-22T10:21:01;16.20;50.30
83500;DHT22;73433;50.908;13.746;2024-03-22T10:23:31;16.40;49.90
83500;DHT22;73433;50.908;13.746;2024-03-22T10:25:58;16.60;49.80
83500;DHT22;73433;50.908;13.746;2024-03-22T10:28:25;16.80;48.40
83500;DHT22;73433;50.908;13.746;2024-03-22T10:30:51;16.90;48.20
83500;DHT22;73433;50.908;13.746;2024-03-22T10:33:22;17.00;48.20
83500;DHT22;73433;50.908;13.746;2024-03-22T10:35:52;17.20;48.00
83500;DHT22;73433;50.908;13.746;2024-03-22T10:38:22;17.10;47.50
83500;DHT22;73433;50.908;13.746;2024-03-22T10:40:48;17.10;47.90
83500;DHT22;73433;50.908;13.746;2024-03-22T10:43:15;17.00;47.80
83500;DHT22;73433;50.908;13.746;2024-03-22T10:45:42;16.80;47.80
83500;DHT22;73433;50.908;13.746;2024-03-22T10:48:12;16.60;48.10
83500;DHT22;73433;50.908;13.746;2024-03-22T10:50:40;16.60;49.50
83500;DHT22;73433;50.908;13.746;2024-03-22T10:53:12;17.00;49.30
83500;DHT22;73433;50.908;13.746;2024-03-22T10:55:43;17.60;49.50
83500;DHT22;73433;50.908;13.746;2024-03-22T10:58:17;18.00;46.60
83500;DHT22;73433;50.908;13.746;2024-03-22T11:00:43;18.00;45.70
83500;DHT22;73433;50.908;13.746;2024-03-22T11:03:10;18.10;46.70
83500;DHT22;73433;50.908;13.746;2024-03-22T11:05:48;18.40;46.10
83500;DHT22;73433;50.908;13.746;2024-03-22T11:08:26;18.60;46.30
83500;DHT22;73433;50.908;13.746;2024-03-22T11:10:54;19.10;46.40
83500;DHT22;73433;50.908;13.746;2024-03-22T11:13:20;19.40;44.60
83500;DHT22;73433;50.908;13.746;2024-03-22T11:15:50;19.40;44.10
83500;DHT22;73433;50.908;13.746;2024-03-22T11:18:20;19.30;43.30
83500;DHT22;73433;50.908;13.746;2024-03-22T11:20:46;19.00;42.80
83500;DHT22;73433;50.908;13.746;2024-03-22T11:23:12;18.70;42.80
83500;DHT22;73433;50.908;13.746;2024-03-22T11:25:38;18.30;43.70
83500;DHT22;73433;50.908;13.746;2024-03-22T11:28:05;18.10;44.30
83500;DHT22;73433;50.908;13.746;2024-03-22T11:30:32;17.80;43.90
83500;DHT22;73433;50.908;13.746;2024-03-22T11:33:02;17.50;44.60
83500;DHT22;73433;50.908;13.746;2024-03-22T11:35:29;17.30;45.10
83500;DHT22;73433;50.908;13.746;2024-03-22T11:37:55;17.00;46.00
83500;DHT22;73433;50.908;13.746;2024-03-22T11:40:22;16.90;46.70
83500;DHT22;73433;50.908;13.746;2024-03-22T11:42:50;16.80;46.90
83500;DHT22;73433;50.908;13.746;2024-03-22T11:45:18;16.70;47.20
83500;DHT22;73433;50.908;13.746;2024-03-22T11:47:46;16.60;47.70
83500;DHT22;73433;50.908;13.746;2024-03-22T11:50:13;16.60;48.40
83500;DHT22;73433;50.908;13.746;2024-03-22T11:52:44;16.60;48.60
83500;DHT22;73433;50.908;13.746;2024-03-22T11:55:10;16.70;48.80
83500;DHT22;73433;50.908;13.746;2024-03-22T11:57:36;16.70;49.10
83500;DHT22;73433;50.908;13.746;2024-03-22T12:00:04;16.70;48.90
83500;DHT22;73433;50.908;13.746;2024-03-22T12:02:38;16.70;48.80
83500;DHT22;73433;50.908;13.746;2024-03-22T12:05:07;16.60;49.80
83500;DHT22;73433;50.908;13.746;2024-03-22T12:07:34;16.60;49.00
83500;DHT22;73433;50.908;13.746;2024-03-22T12:10:00;16.60;48.90
83500;DHT22;73433;50.908;13.746;2024-03-22T12:12:26;16.60;49.10
83500;DHT22;73433;50.908;13.746;2024-03-22T12:14:55;16.70;49.30
83500;DHT22;73433;50.908;13.746;2024-03-22T12:17:22;16.90;49.00
83500;DHT22;73433;50.908;13.746;2024-03-22T12:19:48;17.20;48.00
83500;DHT22;73433;50.908;13.746;2024-03-22T12:22:14;17.30;47.80
83500;DHT22;73433;50.908;13.746;2024-03-22T12:24:40;17.40;47.20
83500;DHT22;73433;50.908;13.746;2024-03-22T12:27:06;17.40;46.60
83500;DHT22;73433;50.908;13.746;2024-03-22T12:29:33;17.40;46.80
83500;DHT22;73433;50.908;13.746;2024-03-22T12:31:59;17.40;47.10
83500;DHT22;73433;50.908;13.746;2024-03-22T12:34:32;17.50;46.80
83500;DHT22;73433;50.908;13.746;2024-03-22T12:37:02;17.40;47.80
83500;DHT22;73433;50.908;13.746;2024-03-22T12:39:28;17.40;47.60
83500;DHT22;73433;50.908;13.746;2024-03-22T12:41:55;17.20;46.50
83500;DHT22;73433;50.908;13.746;2024-03-22T12:44:21;17.10;47.20
83500;DHT22;73433;50.908;13.746;2024-03-22T12:46:47;16.90;47.70
83500;DHT22;73433;50.908;13.746;2024-03-22T12:49:13;16.80;48.20
83500;DHT22;73433;50.908;13.746;2024-03-22T12:51:39;16.90;48.90
83500;DHT22;73433;50.908;13.746;2024-03-22T12:54:07;16.90;49.30
83500;DHT22;73433;50.908;13.746;2024-03-22T12:56:34;17.00;49.10
83500;DHT22;73433;50.908;13.746;2024-03-22T12:59:02;17.00;48.80
83500;DHT22;73433;50.908;13.746;2024-03-22T13:01:28;16.90;48.80
83500;DHT22;73433;50.908;13.746;2024-03-22T13:03:55;16.80;48.50
83500;DHT22;73433;50.908;13.746;2024-03-22T13:06:21;16.80;49.10
83500;DHT22;73433;50.908;13.746;2024-03-22T13:08:46;17.00;48.70
83500;DHT22;73433;50.908;13.746;2024-03-22T13:11:12;17.10;48.30
83500;DHT22;73433;50.908;13.746;2024-03-22T13:13:40;17.10;47.90
83500;DHT22;73433;50.908;13.746;2024-03-22T13:16:06;17.10;47.70
83500;DHT22;73433;50.908;13.746;2024-03-22T13:18:32;17.00;47.30
83500;DHT22;73433;50.908;13.746;2024-03-22T13:20:58;16.90;47.40
83500;DHT22;73433;50.908;13.746;2024-03-22T13:23:25;16.80;47.40
83500;DHT22;73433;50.908;13.746;2024-03-22T13:25:50;16.70;47.40
83500;DHT22;73433;50.908;13.746;2024-03-22T13:28:17;16.50;47.40
83500;DHT22;73433;50.908;13.746;2024-03-22T13:30:48;16.40;47.60
83500;DHT22;73433;50.908;13.746;2024-03-22T13:33:15;16.30;48.50
83500;DHT22;73433;50.908;13.746;2024-03-22T13:35:41;16.30;48.90
83500;DHT22;73433;50.908;13.746;2024-03-22T13:38:07;16.30;48.90
83500;DHT22;73433;50.908;13.746;2024-03-22T13:40:38;16.30;49.00
83500;DHT22;73433;50.908;13.746;2024-03-22T13:43:06;16.20;48.60
83500;DHT22;73433;50.908;13.746;2024-03-22T13:45:32;16.20;49.00
83500;DHT22;73433;50.908;13.746;2024-03-22T13:47:58;16.10;49.30
83500;DHT22;73433;50.908;13.746;2024-03-22T13:50:24;16.10;49.80
83500;DHT22;73433;50.908;13.746;2024-03-22T13:52:50;16.10;50.30
83500;DHT22;73433;50.908;13.746;2024-03-22T13:55:16;16.10;50.70
83500;DHT22;73433;50.908;13.746;2024-03-22T13:57:42;16.00;50.60
83500;DHT22;73433;50.908;13.746;2024-03-22T14:00:09;16.00;50.50
83500;DHT22;73433;50.908;13.746;2024-03-22T14:02:40;16.00;50.20
83500;DHT22;73433;50.908;13.746;2024-03-22T14:05:06;15.90;49.80
83500;DHT22;73433;50.908;13.746;2024-03-22T14:07:34;15.80;49.90
83500;DHT22;73433;50.908;13.746;2024-03-22T14:10:01;15.80;49.90
83500;DHT22;73433;50.908;13.746;2024-03-22T14:12:28;15.70;49.30
83500;DHT22;73433;50.908;13.746;2024-03-22T14:14:54;15.70;50.20
83500;DHT22;73433;50.908;13.746;2024-03-22T14:17:20;15.80;50.70
83500;DHT22;73433;50.908;13.746;2024-03-22T14:19:46;15.70;50.60
83500;DHT22;73433;50.908;13.746;2024-03-22T14:22:12;15.70;51.00
83500;DHT22;73433;50.908;13.746;2024-03-22T14:24:38;15.70;51.00
83500;DHT22;73433;50.908;13.746;2024-03-22T14:27:05;15.60;51.00
83500;DHT22;73433;50.908;13.746;2024-03-22T14:29:31;15.60;51.20
83500;DHT22;73433;50.908;13.746;2024-03-22T14:31:57;15.50;51.30
83500;DHT22;73433;50.908;13.746;2024-03-22T14:34:24;15.50;51.20
83500;DHT22;73433;50.908;13.746;2024-03-22T14:36:50;15.50;51.00
83500;DHT22;73433;50.908;13.746;2024-03-22T14:39:16;15.50;51.30
83500;DHT22;73433;50.908;13.746;2024-03-22T14:41:42;15.50;51.60
83500;DHT22;73433;50.908;13.746;2024-03-22T14:44:08;15.50;51.70
83500;DHT22;73433;50.908;13.746;2024-03-22T14:46:34;15.40;51.70
83500;DHT22;73433;50.908;13.746;2024-03-22T14:49:00;15.40;51.40
83500;DHT22;73433;50.908;13.746;2024-03-22T14:51:26;15.40;51.20
83500;DHT22;73433;50.908;13.746;2024-03-22T14:53:52;15.30;51.10
83500;DHT22;73433;50.908;13.746;2024-03-22T14:56:18;15.20;51.00
83500;DHT22;73433;50.908;13.746;2024-03-22T14:58:45;15.20;51.20
83500;DHT22;73433;50.908;13.746;2024-03-22T15:01:11;15.10;51.50
83500;DHT22;73433;50.908;13.746;2024-03-22T15:03:37;15.10;52.00
83500;DHT22;73433;50.908;13.746;2024-03-22T15:06:04;15.00;51.80
83500;DHT22;73433;50.908;13.746;2024-03-22T15:08:30;15.00;52.20
83500;DHT22;73433;50.908;13.746;2024-03-22T15:10:56;14.90;52.60
83500;DHT22;73433;50.908;13.746;2024-03-22T15:13:22;14.90;53.20
83500;DHT22;73433;50.908;13.746;2024-03-22T15:15:56;14.90;53.90
83500;DHT22;73433;50.908;13.746;2024-03-22T15:18:22;14.80;53.90
83500;DHT22;73433;50.908;13.746;2024-03-22T15:20:49;14.70;54.00